createdAt,value
2023-06-26T00:00:00.533Z,0
2023-06-26T00:05:00.509Z,0
2023-06-26T00:10:00.553Z,0
2023-06-26T00:15:00.544Z,0
2023-06-26T00:20:00.542Z,0
2023-06-26T00:25:00.543Z,0
2023-06-26T00:30:00.562Z,0
2023-06-26T00:35:00.569Z,0
2023-06-26T00:40:00.614Z,0
2023-06-26T00:45:00.604Z,0
2023-06-26T00:50:00.570Z,0
2023-06-26T00:55:00.568Z,0
2023-06-26T01:00:00.575Z,0
2023-06-26T01:05:00.552Z,0
2023-06-26T01:10:00.581Z,0
2023-06-26T01:15:00.534Z,0
2023-06-26T01:20:00.569Z,0
2023-06-26T01:25:00.667Z,0
2023-06-26T01:30:00.581Z,0
2023-06-26T01:35:00.595Z,0
2023-06-26T01:40:00.559Z,0
2023-06-26T01:45:00.555Z,0
2023-06-26T01:50:00.652Z,0
2023-06-26T01:55:00.564Z,0
2023-06-26T02:00:00.578Z,0
2023-06-26T02:05:00.576Z,0
2023-06-26T02:10:00.616Z,0
2023-06-26T02:15:00.586Z,0
2023-06-26T02:20:00.579Z,0
2023-06-26T02:25:00.550Z,0
2023-06-26T02:30:00.613Z,0
2023-06-26T02:35:00.554Z,0
2023-06-26T02:40:00.568Z,0
2023-06-26T02:45:00.537Z,10
2023-06-26T02:50:00.590Z,17
2023-06-26T02:55:00.589Z,31
2023-06-26T03:00:00.537Z,45
2023-06-26T03:05:00.580Z,75
2023-06-26T03:10:01.160Z,124
2023-06-26T03:15:00.568Z,172
2023-06-26T03:20:00.529Z,136
2023-06-26T03:25:00.555Z,225
2023-06-26T03:30:00.562Z,265
2023-06-26T03:35:00.617Z,368
2023-06-26T03:40:00.561Z,503
2023-06-26T03:45:00.567Z,637
2023-06-26T03:50:00.706Z,717
2023-06-26T03:55:00.563Z,807
2023-06-26T04:00:00.616Z,1022
2023-06-26T04:05:00.605Z,1151
2023-06-26T04:10:00.561Z,1296
2023-06-26T04:15:00.573Z,1459
2023-06-26T04:20:00.566Z,1640
2023-06-26T04:25:00.568Z,1459
2023-06-26T04:30:00.615Z,1459
2023-06-26T04:35:00.582Z,1850
2023-06-26T04:40:00.594Z,2089
2023-06-26T04:45:00.586Z,2176
2023-06-26T04:50:00.570Z,2176
2023-06-26T04:55:00.571Z,2176
2023-06-26T05:00:00.627Z,2176
2023-06-26T05:05:00.578Z,2354
2023-06-26T05:10:00.579Z,2688
2023-06-26T05:15:00.564Z,2688
2023-06-26T05:20:00.910Z,3025
2023-06-26T05:25:00.566Z,3410
2023-06-26T05:30:00.623Z,3410
2023-06-26T05:35:00.561Z,3410
2023-06-26T05:40:00.584Z,3667
2023-06-26T05:45:00.572Z,3667
2023-06-26T05:50:00.541Z,3833
2023-06-26T05:55:00.579Z,3833
2023-06-26T06:00:00.737Z,4310
2023-06-26T06:05:00.645Z,4379
2023-06-26T06:10:00.562Z,3827
2023-06-26T06:15:00.592Z,3827
2023-06-26T06:20:00.573Z,3827
2023-06-26T06:25:00.627Z,3827
2023-06-26T06:30:00.605Z,3827
2023-06-26T06:35:00.589Z,4046
2023-06-26T06:40:00.634Z,4046
2023-06-26T06:45:00.684Z,4306
2023-06-26T06:50:00.603Z,4306
2023-06-26T06:55:00.682Z,4306
2023-06-26T07:00:00.682Z,4306
2023-06-26T07:05:00.547Z,4842
2023-06-26T07:10:00.704Z,5471
2023-06-26T07:15:00.635Z,4981
2023-06-26T07:20:00.576Z,7259
2023-06-26T07:25:00.570Z,5181
2023-06-26T07:30:00.562Z,8046
2023-06-26T07:35:00.666Z,8046
2023-06-26T07:40:00.783Z,9135
2023-06-26T07:45:00.590Z,7779
2023-06-26T07:50:00.715Z,13893
2023-06-26T07:55:00.607Z,8794
2023-06-26T08:00:00.643Z,13668
2023-06-26T08:05:01.121Z,9171
2023-06-26T08:10:00.731Z,6428
2023-06-26T08:15:00.599Z,13788
2023-06-26T08:20:00.595Z,17310
2023-06-26T08:25:00.734Z,11921
2023-06-26T08:30:00.603Z,5828
2023-06-26T08:35:00.631Z,20022
2023-06-26T08:40:00.520Z,22605
2023-06-26T08:45:02.626Z,10723
2023-06-26T08:50:00.610Z,6901
2023-06-26T08:55:00.600Z,25090
2023-06-26T09:00:00.711Z,26705
2023-06-26T09:05:00.608Z,20207
2023-06-26T09:10:00.646Z,10977
2023-06-26T09:15:00.656Z,33167
2023-06-26T09:20:00.596Z,11910
2023-06-26T09:25:00.593Z,34850
2023-06-26T09:30:00.569Z,9815
2023-06-26T09:35:00.625Z,37653
2023-06-26T09:40:00.771Z,11858
2023-06-26T09:45:00.731Z,43251
2023-06-26T09:50:00.678Z,10668
2023-06-26T09:55:00.570Z,41706
2023-06-26T10:00:00.707Z,41706
2023-06-26T10:05:00.580Z,41706
2023-06-26T10:10:00.633Z,41706
2023-06-26T10:15:00.668Z,13756
2023-06-26T10:20:03.716Z,44978
2023-06-26T10:25:00.589Z,44978
2023-06-26T10:30:00.596Z,47852
2023-06-26T10:35:00.612Z,47852
2023-06-26T10:40:00.587Z,11858
2023-06-26T10:45:00.609Z,43692
2023-06-26T10:50:14.999Z,49204
2023-06-26T10:55:00.523Z,48955
2023-06-26T11:00:00.712Z,48250
2023-06-26T11:05:00.597Z,48250
2023-06-26T11:10:00.575Z,16459
2023-06-26T11:15:00.658Z,53716
2023-06-26T11:20:03.015Z,55475
2023-06-26T11:25:00.723Z,53015
2023-06-26T11:30:00.602Z,21913
2023-06-26T11:35:00.563Z,20272
2023-06-26T11:40:00.600Z,58533
2023-06-26T11:45:00.675Z,17450
2023-06-26T11:50:00.631Z,19661
2023-06-26T11:55:00.660Z,15682
2023-06-26T12:00:00.748Z,44015
2023-06-26T12:05:00.626Z,39418
2023-06-26T12:10:00.554Z,55976
2023-06-26T12:15:00.863Z,59211
2023-06-26T12:20:00.575Z,54992
2023-06-26T12:25:00.609Z,54992
2023-06-26T12:30:00.555Z,50687
2023-06-26T12:35:00.620Z,48652
2023-06-26T12:40:00.597Z,60464
2023-06-26T12:45:00.608Z,60464
2023-06-26T12:50:00.563Z,62201
2023-06-26T12:55:00.618Z,56728
2023-06-26T13:00:00.590Z,58358
2023-06-26T13:05:00.675Z,34802
2023-06-26T13:10:00.730Z,50188
2023-06-26T13:15:00.666Z,57266
2023-06-26T13:20:00.606Z,14959
2023-06-26T13:25:00.504Z,15290
2023-06-26T13:30:00.598Z,50513
2023-06-26T13:35:00.645Z,13643
2023-06-26T13:40:00.737Z,39673
2023-06-26T13:45:05.972Z,42218
2023-06-26T13:50:00.578Z,53469
2023-06-26T13:55:00.629Z,56105
2023-06-26T14:00:00.676Z,19324
2023-06-26T14:05:00.637Z,29302
2023-06-26T14:10:00.608Z,38124
2023-06-26T14:15:00.607Z,33690
2023-06-26T14:20:00.649Z,34826
2023-06-26T14:25:00.532Z,33182
2023-06-26T14:30:00.609Z,20535
2023-06-26T14:35:00.543Z,43793
2023-06-26T14:40:00.634Z,49374
2023-06-26T14:45:00.560Z,23147
2023-06-26T14:50:00.611Z,15108
2023-06-26T14:55:00.624Z,45373
2023-06-26T15:00:00.675Z,40383
2023-06-26T15:05:00.600Z,9732
2023-06-26T15:10:00.596Z,39391
2023-06-26T15:15:00.577Z,37515
2023-06-26T15:20:00.572Z,36771
2023-06-26T15:25:00.530Z,38610
2023-06-26T15:30:00.592Z,34954
2023-06-26T15:35:00.616Z,35229
2023-06-26T15:40:00.727Z,35229
2023-06-26T15:45:00.578Z,26442
2023-06-26T15:50:00.641Z,31514
2023-06-26T15:55:00.775Z,21004
2023-06-26T16:00:00.607Z,27887
2023-06-26T16:05:00.611Z,7802
2023-06-26T16:10:00.560Z,23201
2023-06-26T16:15:00.528Z,6997
2023-06-26T16:20:00.642Z,7190
2023-06-26T16:25:00.564Z,7204
2023-06-26T16:30:00.705Z,9028
2023-06-26T16:35:00.576Z,9204
2023-06-26T16:40:00.687Z,6653
2023-06-26T16:45:00.694Z,6362
2023-06-26T16:50:00.621Z,14424
2023-06-26T16:55:00.620Z,12151
2023-06-26T17:00:00.594Z,10659
2023-06-26T17:05:00.621Z,10827
2023-06-26T17:10:00.561Z,5565
2023-06-26T17:15:00.693Z,9504
2023-06-26T17:20:00.617Z,9430
2023-06-26T17:25:00.610Z,9430
2023-06-26T17:30:00.714Z,4250
2023-06-26T17:35:00.725Z,8093
2023-06-26T17:40:00.595Z,8093
2023-06-26T19:25:00.547Z,1146
2023-06-26T19:30:00.540Z,1017
2023-06-26T19:35:00.588Z,803
2023-06-26T19:40:00.904Z,635
2023-06-26T19:45:00.537Z,501
2023-06-26T19:50:00.523Z,359
2023-06-26T19:55:00.680Z,259
2023-06-26T20:00:00.557Z,186
2023-06-26T20:05:00.518Z,200
2023-06-26T20:10:00.544Z,121
2023-06-26T20:15:00.574Z,86
2023-06-26T20:20:00.530Z,45
2023-06-26T20:25:00.625Z,31
2023-06-26T20:30:00.599Z,17
2023-06-26T20:35:00.522Z,10
2023-06-26T20:40:00.721Z,10
2023-06-26T20:45:00.568Z,10
2023-06-26T20:50:00.569Z,3
2023-06-26T20:55:00.550Z,3
2023-06-26T21:00:00.666Z,3
2023-06-26T21:05:00.535Z,3
2023-06-26T21:10:00.636Z,3
2023-06-26T21:15:00.561Z,0
2023-06-26T21:20:00.727Z,0
2023-06-26T21:25:00.656Z,0
2023-06-26T21:30:00.585Z,0
2023-06-26T21:35:00.536Z,0
2023-06-26T21:40:00.634Z,0
2023-06-26T21:45:00.529Z,0
2023-06-26T21:50:00.580Z,0
2023-06-26T21:55:00.631Z,0
2023-06-26T22:00:00.678Z,0
2023-06-26T22:05:00.583Z,0
2023-06-26T22:10:00.535Z,0
2023-06-26T22:15:00.607Z,0
2023-06-26T22:20:00.524Z,0
2023-06-26T22:25:00.545Z,0
2023-06-26T22:30:00.586Z,0
2023-06-26T22:35:00.576Z,0
2023-06-26T22:40:00.570Z,0
2023-06-26T22:45:00.576Z,0
2023-06-26T22:50:00.555Z,0
2023-06-26T22:55:00.581Z,0
2023-06-26T23:00:00.608Z,0
2023-06-26T23:05:00.563Z,0
2023-06-26T23:10:00.550Z,0
2023-06-26T23:15:00.529Z,0
2023-06-26T23:20:00.565Z,0
2023-06-26T23:25:00.535Z,0
2023-06-26T23:30:00.544Z,0
2023-06-26T23:35:00.555Z,0
2023-06-26T23:40:00.520Z,0
2023-06-26T23:45:00.814Z,0
2023-06-26T23:50:00.600Z,0
2023-06-26T23:55:00.537Z,0
